createdAt,value
2022-09-30T00:00:46.362Z,28.1
2022-09-30T00:06:25.667Z,28.1
2022-09-30T00:12:02.206Z,28.1
2022-09-30T00:17:38.984Z,28.1
2022-09-30T00:22:30.544Z,28.1
2022-09-30T00:27:51.845Z,28.1
2022-09-30T00:33:29.579Z,28.1
2022-09-30T00:39:05.964Z,28.1
2022-09-30T00:44:43.389Z,28.1
2022-09-30T00:50:10.300Z,28.1
2022-09-30T00:55:47.308Z,28.1
2022-09-30T01:01:23.899Z,28.1
2022-09-30T01:07:00.278Z,28.1
2022-09-30T01:12:42.416Z,28.1
2022-09-30T01:18:19.225Z,28.1
2022-09-30T01:23:47.066Z,28.1
2022-09-30T01:29:08.701Z,28.1
2022-09-30T01:34:30.262Z,28.1
2022-09-30T01:39:51.508Z,28.1
2022-09-30T01:45:29.300Z,28
2022-09-30T01:51:05.326Z,28
2022-09-30T01:56:42.187Z,28
2022-09-30T02:02:20.238Z,28
2022-09-30T02:07:56.485Z,28
2022-09-30T02:13:33.545Z,28
2022-09-30T02:19:11.350Z,28
2022-09-30T02:24:48.710Z,28
2022-09-30T02:30:25.366Z,28
2022-09-30T02:35:47.777Z,28
2022-09-30T02:40:54.235Z,27.9
2022-09-30T02:46:15.429Z,27.9
2022-09-30T02:51:38.092Z,28
2022-09-30T02:57:14.632Z,27.9
2022-09-30T03:02:58.330Z,27.9
2022-09-30T03:08:36.021Z,27.9
2022-09-30T03:13:58.320Z,27.9
2022-09-30T03:19:23.185Z,27.9
2022-09-30T03:24:44.727Z,27.9
2022-09-30T03:30:06.917Z,27.9
2022-09-30T03:35:45.572Z,27.9
2022-09-30T03:41:22.406Z,27.9
2022-09-30T03:46:59.079Z,27.9
2022-09-30T03:52:35.240Z,27.9
2022-09-30T03:58:12.982Z,27.9
2022-09-30T04:03:50.418Z,27.9
2022-09-30T04:09:27.162Z,27.9
2022-09-30T04:15:05.328Z,27.9
2022-09-30T04:20:46.113Z,27.9
2022-09-30T04:31:33.637Z,27.9
2022-09-30T04:37:11.381Z,27.9
2022-09-30T04:48:11.936Z,27.7
2022-09-30T04:53:38.265Z,27.5
2022-09-30T04:59:00.798Z,27.4
2022-09-30T05:04:39.662Z,27.3
2022-09-30T05:10:21.941Z,27.2
2022-09-30T05:15:58.764Z,27.1
2022-09-30T05:21:41.368Z,27.1
2022-09-30T05:27:19.171Z,27.1
2022-09-30T05:32:56.954Z,27
2022-09-30T05:38:34.717Z,27
2022-09-30T05:44:12.572Z,26.9
2022-09-30T05:49:53.047Z,26.9
2022-09-30T05:55:37.048Z,26.9
2022-09-30T06:01:25.453Z,26.8
2022-09-30T06:07:07.030Z,26.4
2022-09-30T06:12:48.121Z,26.1
2022-09-30T06:18:26.317Z,25.9
2022-09-30T06:24:04.061Z,25.7
2022-09-30T06:29:43.356Z,25.5
2022-09-30T06:35:22.823Z,25.3
2022-09-30T06:41:00.489Z,25.2
2022-09-30T06:47:44.728Z,25.1
2022-09-30T06:54:09.953Z,24.9
2022-09-30T06:59:47.922Z,24.8
2022-09-30T07:05:29.380Z,24.7
2022-09-30T07:11:06.744Z,24.6
2022-09-30T07:16:44.147Z,24.6
2022-09-30T07:22:22.201Z,24.5
2022-09-30T07:28:00.044Z,24.4
2022-09-30T07:34:35.398Z,24.4
2022-09-30T07:40:14.670Z,25.9
2022-09-30T07:45:53.386Z,34.8
2022-09-30T07:51:34.145Z,32.7
2022-09-30T07:57:44.175Z,37.9
2022-09-30T08:03:48.812Z,41.6
2022-09-30T08:09:31.295Z,43.3
2022-09-30T08:15:11.626Z,44.9
2022-09-30T08:20:54.799Z,46.4
2022-09-30T08:26:33.595Z,47.9
2022-09-30T08:32:42.286Z,49.3
2022-09-30T08:38:22.193Z,50.6
2022-09-30T08:44:20.417Z,51.8
2022-09-30T08:50:09.185Z,52.9
2022-09-30T08:56:02.287Z,54
2022-09-30T09:01:44.441Z,54.9
2022-09-30T09:07:27.357Z,55.3
2022-09-30T09:13:05.884Z,55.4
2022-09-30T09:18:52.756Z,56.3
2022-09-30T09:24:36.224Z,57.2
2022-09-30T09:29:59.993Z,57.8
2022-09-30T09:41:08.940Z,59.3
2022-09-30T09:46:50.550Z,59.9
2022-09-30T09:52:13.493Z,60.6
2022-09-30T09:57:54.747Z,61.2
2022-09-30T10:03:38.752Z,62
2022-09-30T10:09:16.001Z,62.8
2022-09-30T10:14:38.154Z,63.2
2022-09-30T10:20:00.853Z,63.6
2022-09-30T10:25:39.251Z,64
2022-09-30T10:31:20.657Z,64.4
2022-09-30T10:37:03.939Z,64.9
2022-09-30T10:42:47.242Z,65.4
2022-09-30T10:48:42.648Z,65.8
2022-09-30T10:54:05.088Z,66.2
2022-09-30T10:59:33.701Z,66.6
2022-09-30T11:05:03.748Z,66.9
2022-09-30T11:10:26.267Z,67.3
2022-09-30T11:15:48.658Z,67.8
2022-09-30T11:21:26.971Z,68.1
2022-09-30T11:27:06.641Z,68.4
2022-09-30T11:32:16.530Z,66.6
2022-09-30T11:37:54.385Z,57.2
2022-09-30T11:43:31.770Z,56.2
2022-09-30T11:49:09.182Z,58
2022-09-30T11:54:31.611Z,58.2
2022-09-30T12:00:34.679Z,58.8
2022-09-30T12:05:57.253Z,59.4
2022-09-30T12:11:34.725Z,59.4
2022-09-30T12:16:49.270Z,59.1
2022-09-30T12:27:55.262Z,58.4
2022-09-30T12:33:35.245Z,59.1
2022-09-30T12:39:13.212Z,59.8
2022-09-30T12:44:50.690Z,60.4
2022-09-30T12:50:29.352Z,60.9
2022-09-30T12:56:07.174Z,61.3
2022-09-30T13:01:44.983Z,58.8
2022-09-30T13:07:25.468Z,54.8
2022-09-30T13:13:03.465Z,55.1
2022-09-30T13:18:27.098Z,56
2022-09-30T13:23:49.561Z,56.8
2022-09-30T13:29:32.453Z,57.2
2022-09-30T13:35:11.017Z,57.4
2022-09-30T13:41:14.034Z,57.6
2022-09-30T13:46:53.356Z,57.6
2022-09-30T13:52:00.591Z,57.5
2022-09-30T13:57:22.533Z,57.3
2022-09-30T14:03:00.761Z,56.9
2022-09-30T14:08:38.861Z,56.3
2022-09-30T14:14:22.369Z,55.9
2022-09-30T14:20:02.035Z,55.4
2022-09-30T14:25:43.631Z,55
2022-09-30T14:31:23.682Z,54.5
2022-09-30T14:38:31.338Z,53.9
2022-09-30T14:44:14.888Z,53.2
2022-09-30T14:49:53.376Z,52.7
2022-09-30T14:55:37.095Z,52.1
2022-09-30T15:01:15.411Z,51.5
2022-09-30T15:06:56.759Z,50.9
2022-09-30T15:12:33.817Z,50.4
2022-09-30T15:18:12.566Z,47.3
2022-09-30T15:23:49.966Z,45.1
2022-09-30T15:29:28.247Z,47.4
2022-09-30T15:35:11.302Z,45
2022-09-30T15:40:52.918Z,42.9
2022-09-30T15:46:31.999Z,41.2
2022-09-30T15:52:10.029Z,40
2022-09-30T15:57:52.329Z,38.8
2022-09-30T16:03:30.222Z,37.8
2022-09-30T16:09:08.655Z,36.9
2022-09-30T16:14:48.723Z,36.3
2022-09-30T16:20:30.213Z,35.6
2022-09-30T16:26:07.372Z,35.2
2022-09-30T16:31:47.365Z,34.9
2022-09-30T16:37:25.027Z,34.4
2022-09-30T16:43:06.688Z,34.1
2022-09-30T16:48:46.046Z,33.6
2022-09-30T16:54:12.129Z,32.9
2022-09-30T16:59:50.114Z,32.6
2022-09-30T17:05:12.088Z,32.4
2022-09-30T17:10:50.159Z,32.1
2022-09-30T17:16:12.361Z,31.9
2022-09-30T17:21:49.577Z,31.8
2022-09-30T17:27:11.984Z,31.6
2022-09-30T17:33:12.394Z,31.5
2022-09-30T17:38:52.547Z,31.4
2022-09-30T17:44:02.236Z,31.3
2022-09-30T17:49:40.920Z,31.1
2022-09-30T17:55:22.771Z,31.1
2022-09-30T18:00:44.847Z,30.9
2022-09-30T18:06:24.668Z,30.9
2022-09-30T18:12:03.095Z,30.8
2022-09-30T18:17:41.359Z,30.7
2022-09-30T18:23:19.858Z,30.6
2022-09-30T18:28:30.260Z,30.6
2022-09-30T18:33:53.832Z,30.5
2022-09-30T18:39:32.043Z,30.4
2022-09-30T18:44:40.012Z,30.3
2022-09-30T18:50:18.183Z,29.8
2022-09-30T18:55:56.083Z,29.3
2022-09-30T19:01:36.815Z,29
2022-09-30T19:07:15.655Z,28.8
2022-09-30T19:12:53.521Z,28.5
2022-09-30T19:18:34.312Z,28.4
2022-09-30T19:24:11.691Z,28.3
2022-09-30T19:29:49.686Z,28.2
2022-09-30T19:36:14.685Z,28.1
2022-09-30T19:43:10.173Z,28
2022-09-30T19:48:55.878Z,27.9
2022-09-30T19:55:42.599Z,27.9
2022-09-30T20:12:13.719Z,27.8
2022-09-30T20:17:42.466Z,27.8
2022-09-30T20:23:20.568Z,27.7
2022-09-30T20:28:59.023Z,27.7
2022-09-30T20:34:22.240Z,27.7
2022-09-30T20:40:01.114Z,27.6
2022-09-30T20:45:38.930Z,27.6
2022-09-30T20:51:19.589Z,27.6
2022-09-30T20:57:22.361Z,27.6
2022-09-30T21:03:00.789Z,27.6
2022-09-30T21:08:38.180Z,27.6
2022-09-30T21:14:01.817Z,27.6
2022-09-30T21:19:39.594Z,27.6
2022-09-30T21:25:01.629Z,27.6
2022-09-30T21:30:28.830Z,27.6
2022-09-30T21:35:52.123Z,27.6
2022-09-30T21:41:30.306Z,27.6
2022-09-30T21:46:52.668Z,27.5
2022-09-30T21:52:32.785Z,27.5
2022-09-30T21:58:11.917Z,27.6
2022-09-30T22:03:50.671Z,27.5
2022-09-30T22:09:12.413Z,27.5
2022-09-30T22:14:50.254Z,27.5
2022-09-30T22:20:28.422Z,27.5
2022-09-30T22:26:05.685Z,27.5
2022-09-30T22:31:43.147Z,27.5
2022-09-30T22:37:05.886Z,27.4
2022-09-30T22:42:46.056Z,27.4
2022-09-30T22:48:07.834Z,27.3
2022-09-30T22:53:30.519Z,27.2
2022-09-30T22:58:51.771Z,27.1
2022-09-30T23:04:13.034Z,27
2022-09-30T23:09:50.510Z,26.9
2022-09-30T23:15:27.845Z,26.9
2022-09-30T23:21:05.378Z,26.9
2022-09-30T23:26:43.045Z,26.9
2022-09-30T23:32:20.798Z,26.9
2022-09-30T23:37:26.902Z,26.9
2022-09-30T23:43:05.269Z,26.8
2022-09-30T23:48:42.688Z,26.8
2022-09-30T23:54:23.508Z,26.8
